Time;durP1;ratioP1;P1;durP2;ratioP2;P2;SDS_P1;SDS_P2;PMS_P1;PMS_P2;Temp;Humidity;BMP_temperature;BMP_pressure;BME280_temperature;BME280_humidity;BME280_pressure;Samples;Min_cycle;Max_cycle;Signal;HPM_P1;HPM_P2
2021/12/20 00:00:41;;;;;;;23.15;3.83;;;;;;;6.61;100.00;102693.88;5023481;28;20424;-72
2021/12/20 00:03:07;;;;;;;20.70;3.53;;;;;;;6.56;100.00;102691.00;5022051;28;20402;-72
2021/12/20 00:05:33;;;;;;;14.63;3.90;;;;;;;6.60;100.00;102692.19;5015793;28;20048;-72
2021/12/20 00:07:58;;;;;;;15.60;4.18;;;;;;;6.66;100.00;102702.13;5015133;28;20152;-72
2021/12/20 00:10:24;;;;;;;16.42;3.67;;;;;;;6.70;100.00;102691.66;5015063;28;20096;-72
2021/12/20 00:12:49;;;;;;;12.15;3.65;;;;;;;6.64;100.00;102689.88;5015647;28;20064;-72
2021/12/20 00:15:17;;;;;;;24.42;3.13;;;;;;;6.67;100.00;102676.66;5015236;28;20136;-72
2021/12/20 00:17:43;;;;;;;22.05;3.70;;;;;;;6.55;100.00;102675.81;5014054;28;20096;-72
2021/12/20 00:20:09;;;;;;;15.30;2.97;;;;;;;6.61;100.00;102680.31;5015915;28;20113;-72
2021/12/20 00:22:35;;;;;;;18.90;3.92;;;;;;;6.50;100.00;102675.69;5014496;28;20045;-72
2021/12/20 00:25:01;;;;;;;18.40;3.72;;;;;;;6.52;100.00;102676.28;5013521;28;20545;-72
2021/12/20 00:27:26;;;;;;;24.85;4.15;;;;;;;6.51;100.00;102691.69;5013695;28;20428;-72
2021/12/20 00:29:52;;;;;;;17.73;3.50;;;;;;;6.50;100.00;102689.22;5014223;28;20118;-71
2021/12/20 00:32:18;;;;;;;19.08;4.30;;;;;;;6.51;100.00;102682.75;5014426;28;20049;-71
2021/12/20 00:34:45;;;;;;;16.02;3.25;;;;;;;6.43;100.00;102691.19;5014309;28;20068;-72
2021/12/20 00:42:41;;;;;;;21.08;3.95;;;;;;;6.51;100.00;102678.16;5020554;28;20055;-72
2021/12/20 00:45:08;;;;;;;25.98;3.95;;;;;;;6.51;100.00;102678.16;5016084;28;20037;-72
2021/12/20 00:47:34;;;;;;;14.40;3.67;;;;;;;6.43;100.00;102683.91;5034048;28;20818;-72
2021/12/20 00:50:00;;;;;;;23.42;3.92;;;;;;;6.39;100.00;102681.88;5014900;28;20049;-72
2021/12/20 00:52:25;;;;;;;24.08;4.10;;;;;;;6.36;100.00;102685.88;5011305;28;20053;-72
2021/12/20 00:54:51;;;;;;;21.02;3.38;;;;;;;6.46;100.00;102683.44;5013967;28;20037;-72
2021/12/20 00:57:17;;;;;;;20.05;3.60;;;;;;;6.40;100.00;102681.66;5014344;28;20069;-72
2021/12/20 00:59:42;;;;;;;26.00;4.38;;;;;;;6.45;100.00;102678.25;5012353;28;20773;-72
2021/12/20 01:02:08;;;;;;;25.33;5.13;;;;;;;6.35;100.00;102679.63;5023779;28;20041;-72
2021/12/20 01:04:33;;;;;;;17.60;4.28;;;;;;;6.44;100.00;102682.03;5014212;28;20123;-72
2021/12/20 01:06:59;;;;;;;28.85;5.68;;;;;;;6.43;100.00;102681.22;5013143;28;20049;-71
2021/12/20 01:09:24;;;;;;;31.42;5.55;;;;;;;6.26;100.00;102675.59;5013966;28;20061;-72
2021/12/20 01:11:53;;;;;;;34.45;5.10;;;;;;;6.26;100.00;102681.03;5014231;28;20033;-72
2021/12/20 01:14:27;;;;;;;32.78;4.78;;;;;;;6.31;100.00;102677.59;5012494;28;20061;-72
2021/12/20 01:16:56;;;;;;;20.40;4.55;;;;;;;6.38;100.00;102682.94;5013623;28;20041;-72
2021/12/20 01:19:22;;;;;;;24.02;4.15;;;;;;;6.21;100.00;102688.19;5013836;28;20418;-72
2021/12/20 01:21:48;;;;;;;26.38;4.18;;;;;;;6.31;100.00;102686.59;5011462;28;20052;-72
2021/12/20 01:24:13;;;;;;;23.27;4.15;;;;;;;6.28;100.00;102673.50;5011135;28;20391;-71
2021/12/20 01:26:39;;;;;;;25.85;4.40;;;;;;;6.24;100.00;102677.69;5012197;28;20060;-72
2021/12/20 01:29:04;;;;;;;30.88;4.00;;;;;;;6.35;100.00;102685.06;5013682;28;20556;-72
2021/12/20 01:31:30;;;;;;;19.60;3.50;;;;;;;6.30;100.00;102682.19;5012709;28;20041;-72
2021/12/20 01:33:55;;;;;;;25.45;4.47;;;;;;;6.30;100.00;102690.34;5014051;28;20453;-72
2021/12/20 01:36:21;;;;;;;39.33;5.28;;;;;;;6.26;100.00;102682.91;5016953;28;21009;-72
2021/12/20 01:38:46;;;;;;;28.08;5.18;;;;;;;6.22;100.00;102689.81;5017353;28;20509;-72
2021/12/20 01:41:11;;;;;;;32.00;4.60;;;;;;;6.06;100.00;102692.13;5015533;28;20552;-72
2021/12/20 01:43:38;;;;;;;25.13;4.35;;;;;;;6.19;100.00;102684.88;5017182;28;20501;-72
2021/12/20 01:46:04;;;;;;;24.30;4.50;;;;;;;6.12;100.00;102693.91;5017185;28;20041;-72
2021/12/20 01:48:31;;;;;;;29.85;5.32;;;;;;;6.14;100.00;102693.69;5019182;28;20036;-72
2021/12/20 01:53:33;;;;;;;27.42;4.82;;;;;;;6.21;100.00;102697.13;5036768;28;20532;-72
2021/12/20 01:55:59;;;;;;;25.75;3.85;;;;;;;6.32;100.00;102685.50;5035321;28;20827;-72
2021/12/20 01:58:27;;;;;;;26.98;4.68;;;;;;;6.28;100.00;102678.91;5034146;28;20043;-72
2021/12/20 02:01:01;;;;;;;36.45;4.82;;;;;;;6.31;100.00;102683.03;5036590;28;20032;-72
2021/12/20 02:03:27;;;;;;;23.33;4.95;;;;;;;6.26;100.00;102691.03;5036441;28;20397;-72
2021/12/20 02:05:56;;;;;;;24.38;4.43;;;;;;;6.21;100.00;102689.00;5034322;28;20187;-72
2021/12/20 02:08:28;;;;;;;31.38;6.03;;;;;;;6.09;100.00;102696.25;5035393;28;20463;-72
2021/12/20 02:10:57;;;;;;;42.95;5.70;;;;;;;6.15;100.00;102689.91;5036507;28;20378;-72
2021/12/20 02:13:28;;;;;;;40.55;5.75;;;;;;;6.14;100.00;102682.84;5035625;28;20036;-71
2021/12/20 02:15:54;;;;;;;29.48;5.00;;;;;;;6.22;100.00;102674.38;5036581;28;20492;-71
2021/12/20 02:18:20;;;;;;;30.27;5.20;;;;;;;6.18;100.00;102678.63;5035771;28;20102;-71
2021/12/20 02:20:45;;;;;;;31.83;5.53;;;;;;;6.25;100.00;102679.34;5036244;28;20543;-71
2021/12/20 02:23:11;;;;;;;27.77;4.75;;;;;;;6.16;100.00;102686.13;5034520;28;20490;-72
2021/12/20 02:25:36;;;;;;;24.20;4.75;;;;;;;6.15;100.00;102684.50;5036448;28;20048;-72
2021/12/20 02:28:12;;;;;;;26.48;5.88;;;;;;;6.23;100.00;102677.94;5036014;28;20052;-72
2021/12/20 02:36:56;;;;;;;26.50;5.28;;;;;;;6.17;100.00;102671.56;5035593;28;20041;-72
2021/12/20 02:39:19;;;;;;;24.13;4.45;;;;;;;6.18;100.00;102670.50;5033300;28;20511;-72
2021/12/20 02:41:44;;;;;;;31.50;4.43;;;;;;;6.12;100.00;102672.25;5034793;28;20459;-73
2021/12/20 02:44:18;;;;;;;26.13;4.88;;;;;;;6.09;100.00;102669.16;5017144;28;20070;-73
2021/12/20 02:49:23;;;;;;;32.05;4.80;;;;;;;6.26;100.00;102670.19;5033154;28;20433;-73
2021/12/20 02:51:52;;;;;;;23.05;4.78;;;;;;;6.17;100.00;102663.44;5033200;28;20487;-73
2021/12/20 02:54:21;;;;;;;26.50;4.78;;;;;;;6.23;100.00;102665.22;5034609;28;20060;-74
2021/12/20 02:56:47;;;;;;;33.80;6.03;;;;;;;6.19;100.00;102664.00;5034485;28;20044;-73
2021/12/20 02:59:14;;;;;;;26.45;4.53;;;;;;;6.15;100.00;102662.84;5035583;28;20560;-73
2021/12/20 03:01:42;;;;;;;29.45;4.70;;;;;;;6.23;100.00;102654.38;5032772;28;20036;-73
2021/12/20 03:04:08;;;;;;;33.28;5.75;;;;;;;6.08;100.00;102668.34;5015184;28;20107;-73
2021/12/20 03:06:41;;;;;;;29.65;5.65;;;;;;;6.16;100.00;102663.66;5012550;28;20049;-73
2021/12/20 03:09:13;;;;;;;31.63;5.88;;;;;;;5.85;100.00;102666.31;5015264;28;20059;-73
2021/12/20 03:11:39;;;;;;;27.63;4.63;;;;;;;5.92;100.00;102668.94;5015094;28;20048;-72
2021/12/20 03:16:38;;;;;;;31.63;6.65;;;;;;;6.13;100.00;102675.75;5015889;28;20061;-73
2021/12/20 03:19:04;;;;;;;33.53;5.07;;;;;;;6.03;100.00;102667.38;5016212;28;20573;-72
2021/12/20 03:21:30;;;;;;;40.67;5.93;;;;;;;6.11;100.00;102669.78;5015257;28;20095;-73
2021/12/20 03:23:56;;;;;;;27.27;4.55;;;;;;;5.86;100.00;102669.84;5013087;28;20557;-72
2021/12/20 03:26:21;;;;;;;25.17;5.65;;;;;;;5.87;100.00;102666.06;5013728;28;20049;-72
2021/12/20 03:28:47;;;;;;;34.22;5.57;;;;;;;6.04;100.00;102666.31;5015392;28;20045;-72
2021/12/20 03:31:13;;;;;;;33.38;7.22;;;;;;;5.96;100.00;102675.56;5015045;28;20413;-72
2021/12/20 03:33:39;;;;;;;34.33;5.40;;;;;;;5.83;100.00;102676.53;5015271;28;20332;-72
2021/12/20 03:36:05;;;;;;;37.47;5.45;;;;;;;5.95;100.00;102673.09;5014609;28;20029;-71
2021/12/20 03:38:30;;;;;;;36.83;5.93;;;;;;;5.98;100.00;102673.47;5014016;28;20068;-71
2021/12/20 03:40:56;;;;;;;27.30;4.85;;;;;;;5.80;100.00;102679.69;5014417;28;20037;-71
2021/12/20 03:43:24;;;;;;;30.25;5.20;;;;;;;5.84;100.00;102677.34;5014506;28;20037;-72
2021/12/20 03:45:56;;;;;;;26.25;4.53;;;;;;;5.61;100.00;102678.03;5014214;28;20045;-72
2021/12/20 03:48:22;;;;;;;43.70;6.50;;;;;;;5.75;100.00;102674.13;5017294;28;20095;-71
2021/12/20 03:50:47;;;;;;;23.45;4.43;;;;;;;5.59;100.00;102680.16;5035143;28;20057;-71
2021/12/20 03:53:13;;;;;;;32.00;5.10;;;;;;;5.81;100.00;102669.69;5032512;28;20053;-72
2021/12/20 03:55:38;;;;;;;25.92;4.97;;;;;;;5.88;100.00;102678.56;5034573;28;20119;-71
2021/12/20 03:58:04;;;;;;;26.92;5.15;;;;;;;5.80;100.00;102679.69;5033741;28;20204;-72
2021/12/20 04:00:30;;;;;;;41.58;5.50;;;;;;;5.85;100.00;102671.72;5031604;28;20037;-72
2021/12/20 04:02:55;;;;;;;24.42;6.13;;;;;;;5.77;100.00;102672.03;5020521;28;20056;-71
2021/12/20 04:05:20;;;;;;;32.38;6.68;;;;;;;5.72;100.00;102669.16;5014340;28;20471;-71
2021/12/20 04:07:46;;;;;;;36.40;5.13;;;;;;;5.63;100.00;102674.06;5013740;28;20048;-71
2021/12/20 04:10:11;;;;;;;31.20;6.43;;;;;;;5.43;100.00;102676.16;5013753;28;20037;-71
2021/12/20 04:12:37;;;;;;;34.00;4.80;;;;;;;5.71;100.00;102674.81;5014474;28;20591;-71
2021/12/20 04:15:05;;;;;;;34.10;5.22;;;;;;;5.69;100.00;102669.63;5014068;28;20141;-72
2021/12/20 04:17:31;;;;;;;33.30;5.82;;;;;;;5.79;100.00;102672.63;5014561;28;20045;-71
2021/12/20 04:19:56;;;;;;;36.80;5.03;;;;;;;5.61;100.00;102678.88;5014496;28;20111;-71
2021/12/20 04:22:22;;;;;;;28.92;5.47;;;;;;;5.65;100.00;102674.66;5014542;28;20045;-71
2021/12/20 04:24:47;;;;;;;30.73;5.88;;;;;;;5.68;100.00;102685.03;5014709;28;20046;-71
2021/12/20 04:27:13;;;;;;;30.83;5.70;;;;;;;5.69;100.00;102672.31;5012469;28;20045;-71
2021/12/20 04:29:38;;;;;;;34.88;5.88;;;;;;;5.72;100.00;102674.56;5014582;28;20040;-71
2021/12/20 04:32:04;;;;;;;25.27;6.22;;;;;;;5.59;100.00;102685.56;5015115;28;20041;-71
2021/12/20 04:34:30;;;;;;;38.10;6.53;;;;;;;5.76;100.00;102681.22;5014335;28;20091;-71
2021/12/20 04:36:56;;;;;;;30.02;5.50;;;;;;;5.77;100.00;102677.44;5027160;28;20472;-71
2021/12/20 04:39:25;;;;;;;29.73;4.85;;;;;;;5.81;100.00;102673.22;5033445;28;20045;-72
2021/12/20 04:41:51;;;;;;;33.75;4.90;;;;;;;5.90;100.00;102673.72;5029025;28;20072;-72
2021/12/20 04:44:16;;;;;;;33.78;5.68;;;;;;;5.88;100.00;102673.97;5034070;28;20034;-71
2021/12/20 04:46:42;;;;;;;34.08;5.05;;;;;;;5.76;100.00;102674.94;5033863;28;20041;-71
2021/12/20 04:49:07;;;;;;;30.95;5.03;;;;;;;5.57;100.00;102677.66;5042367;28;20042;-71
2021/12/20 04:51:33;;;;;;;22.88;4.90;;;;;;;5.65;100.00;102673.84;5031297;28;20126;-71
2021/12/20 04:53:58;;;;;;;29.38;5.07;;;;;;;5.47;100.00;102684.63;5035067;28;20049;-71
2021/12/20 04:56:24;;;;;;;29.50;5.32;;;;;;;5.43;100.00;102681.56;5036525;28;20229;-70
2021/12/20 04:58:49;;;;;;;29.55;4.80;;;;;;;5.63;100.00;102678.66;5039589;28;20037;-71
2021/12/20 05:01:15;;;;;;;28.77;5.50;;;;;;;5.65;100.00;102684.66;5041503;28;20029;-71
2021/12/20 05:03:40;;;;;;;20.30;4.00;;;;;;;5.53;100.00;102686.47;5043861;28;20037;-71
2021/12/20 05:06:06;;;;;;;34.15;4.75;;;;;;;5.57;100.00;102693.06;5039038;28;20041;-72
2021/12/20 05:08:35;;;;;;;22.95;5.55;;;;;;;5.58;100.00;102687.44;5040401;28;20109;-71
2021/12/20 05:11:04;;;;;;;22.73;4.20;;;;;;;5.56;100.00;102692.25;5054444;28;20037;-72
2021/12/20 05:13:29;;;;;;;28.73;3.80;;;;;;;5.53;100.00;102694.59;5057608;28;20056;-71
2021/12/20 05:15:55;;;;;;;27.80;6.50;;;;;;;5.51;100.00;102699.38;5058123;28;20044;-71
2021/12/20 05:18:20;;;;;;;30.38;4.28;;;;;;;5.58;100.00;102686.59;5055890;28;20048;-71
2021/12/20 05:20:45;;;;;;;32.95;4.30;;;;;;;5.67;100.00;102693.38;5056670;28;20056;-71
2021/12/20 05:23:11;;;;;;;36.53;5.28;;;;;;;5.68;100.00;102689.63;5053045;28;20425;-72
2021/12/20 05:25:37;;;;;;;26.75;4.50;;;;;;;5.59;100.00;102690.97;5047444;28;20041;-71
2021/12/20 05:28:03;;;;;;;23.42;3.92;;;;;;;5.55;100.00;102700.59;5037479;28;20453;-71
2021/12/20 05:30:29;;;;;;;29.10;5.30;;;;;;;5.62;100.00;102690.53;5048921;28;20045;-70
2021/12/20 05:32:55;;;;;;;31.65;6.25;;;;;;;5.69;100.00;102693.97;5048583;28;20588;-71
2021/12/20 05:35:21;;;;;;;34.00;5.35;;;;;;;5.54;100.00;102693.53;5046458;28;20045;-71
2021/12/20 05:37:48;;;;;;;23.55;4.18;;;;;;;5.61;100.00;102689.72;5046491;28;20111;-71
2021/12/20 05:40:15;;;;;;;27.70;4.90;;;;;;;5.64;100.00;102704.66;5044948;28;20044;-72
2021/12/20 05:42:41;;;;;;;26.95;5.05;;;;;;;5.43;100.00;102704.03;5043364;28;20045;-70
2021/12/20 05:45:08;;;;;;;33.60;4.90;;;;;;;5.52;100.00;102711.84;5040653;28;20060;-71
2021/12/20 05:47:34;;;;;;;30.52;4.13;;;;;;;5.30;100.00;102692.53;5041793;28;20041;-71
2021/12/20 05:50:00;;;;;;;16.20;4.13;;;;;;;5.20;100.00;102710.06;5024170;28;20480;-71
2021/12/20 05:52:26;;;;;;;25.20;4.28;;;;;;;5.37;100.00;102715.75;5019762;28;20123;-72
2021/12/20 05:54:51;;;;;;;39.20;5.18;;;;;;;5.42;100.00;102713.19;5016266;28;20075;-72
2021/12/20 05:57:17;;;;;;;18.92;4.20;;;;;;;5.43;100.00;102711.31;5018598;28;20041;-71
2021/12/20 05:59:42;;;;;;;23.50;5.10;;;;;;;5.39;100.00;102715.53;5016495;28;20548;-71
2021/12/20 06:02:08;;;;;;;19.70;3.58;;;;;;;5.35;100.00;102707.03;5027303;28;20111;-71
2021/12/20 06:04:33;;;;;;;36.40;5.85;;;;;;;5.44;100.00;102710.28;5020799;28;20041;-72
2021/12/20 06:06:59;;;;;;;23.27;4.30;;;;;;;5.43;100.00;102704.03;5024114;28;20184;-72
2021/12/20 06:09:24;;;;;;;22.48;4.63;;;;;;;5.56;100.00;102699.56;5019501;28;20459;-70
2021/12/20 06:11:50;;;;;;;23.27;4.65;;;;;;;5.44;100.00;102705.69;5015261;28;20665;-72
2021/12/20 06:14:16;;;;;;;29.58;4.75;;;;;;;5.37;100.00;102710.34;5014285;28;20497;-71
2021/12/20 06:16:41;;;;;;;21.75;4.05;;;;;;;5.41;100.00;102711.56;5012899;28;20071;-73
2021/12/20 06:19:07;;;;;;;15.48;4.78;;;;;;;5.39;100.00;102702.81;5015221;28;20041;-73
2021/12/20 06:21:33;;;;;;;23.85;4.40;;;;;;;5.19;100.00;102697.59;5015627;28;20352;-73
2021/12/20 06:23:59;;;;;;;24.15;5.07;;;;;;;5.17;100.00;102712.38;5017997;28;20069;-73
2021/12/20 06:26:25;;;;;;;16.48;3.75;;;;;;;5.23;100.00;102708.78;5020984;28;20037;-73
2021/12/20 06:28:51;;;;;;;22.45;4.72;;;;;;;5.24;100.00;102709.66;5014598;28;20022;-73
2021/12/20 06:31:17;;;;;;;23.55;5.10;;;;;;;5.32;100.00;102704.75;5016249;28;20776;-73
2021/12/20 06:33:43;;;;;;;27.92;4.50;;;;;;;5.40;100.00;102709.88;5020793;28;20069;-73
2021/12/20 06:36:09;;;;;;;32.28;4.22;;;;;;;5.31;100.00;102715.81;5031682;28;20694;-73
2021/12/20 06:38:35;;;;;;;27.40;4.38;;;;;;;5.30;100.00;102723.09;5035068;28;20058;-72
2021/12/20 06:41:01;;;;;;;24.42;4.65;;;;;;;5.29;100.00;102723.31;5033347;28;20048;-73
2021/12/20 06:43:30;;;;;;;28.60;4.65;;;;;;;5.47;100.00;102728.78;5034799;28;20033;-72
2021/12/20 06:45:56;;;;;;;34.25;4.30;;;;;;;5.52;100.00;102728.09;5036044;28;20491;-72
2021/12/20 06:48:21;;;;;;;28.27;4.63;;;;;;;5.51;100.00;102729.16;5031354;28;20033;-72
2021/12/20 06:50:47;;;;;;;30.95;5.05;;;;;;;5.58;100.00;102735.31;5015703;28;20489;-74
2021/12/20 06:53:12;;;;;;;24.30;4.95;;;;;;;5.40;100.00;102739.66;5019060;28;20060;-73
2021/12/20 06:55:38;;;;;;;31.50;4.80;;;;;;;5.42;100.00;102729.44;5013623;28;20042;-73
2021/12/20 06:58:04;;;;;;;24.40;3.65;;;;;;;5.31;100.00;102735.56;5018942;28;20539;-73
2021/12/20 07:00:29;;;;;;;24.85;5.38;;;;;;;5.38;100.00;102738.19;5019432;28;20040;-73
2021/12/20 07:02:55;;;;;;;23.20;4.57;;;;;;;5.41;100.00;102737.75;5033810;28;20114;-73
2021/12/20 07:05:21;;;;;;;26.38;5.28;;;;;;;5.37;100.00;102745.50;5034660;28;20041;-73
2021/12/20 07:07:46;;;;;;;31.30;3.40;;;;;;;5.43;100.00;102741.91;5034968;28;20052;-73
2021/12/20 07:10:12;;;;;;;28.65;4.03;;;;;;;5.59;100.00;102739.69;5034691;28;20577;-73
2021/12/20 07:12:38;;;;;;;21.35;4.32;;;;;;;5.55;100.00;102743.88;5034640;28;20390;-73
2021/12/20 07:15:05;;;;;;;24.83;4.20;;;;;;;5.30;100.00;102757.44;5034648;28;20045;-73
2021/12/20 07:17:31;;;;;;;24.52;4.38;;;;;;;5.45;100.00;102749.81;5035068;28;20163;-72
2021/12/20 07:19:58;;;;;;;28.50;4.03;;;;;;;5.52;100.00;102752.44;5035123;28;20392;-74
2021/12/20 07:22:24;;;;;;;27.40;4.60;;;;;;;5.57;100.00;102755.31;5033271;28;20135;-70
2021/12/20 07:24:49;;;;;;;27.23;4.68;;;;;;;5.57;100.00;102758.03;5034246;28;20421;-73
2021/12/20 07:27:18;;;;;;;23.00;3.78;;;;;;;5.65;100.00;102752.34;5035182;28;20044;-73
2021/12/20 07:29:43;;;;;;;18.83;4.70;;;;;;;5.60;100.00;102747.56;5032915;28;20053;-73
2021/12/20 07:32:11;;;;;;;26.38;3.63;;;;;;;5.53;100.00;102756.81;5034029;28;20122;-73
2021/12/20 07:34:37;;;;;;;25.95;5.35;;;;;;;5.55;100.00;102755.53;5033748;28;20465;-73
2021/12/20 07:37:03;;;;;;;27.10;4.90;;;;;;;5.47;100.00;102746.88;5015701;28;20053;-73
2021/12/20 07:39:29;;;;;;;25.17;4.35;;;;;;;5.49;100.00;102755.59;5032364;28;20064;-73
2021/12/20 07:41:54;;;;;;;24.90;4.32;;;;;;;5.54;100.00;102753.88;5033930;28;20066;-74
2021/12/20 07:44:22;;;;;;;22.38;4.25;;;;;;;5.32;100.00;102760.75;5015732;28;20098;-73
2021/12/20 07:46:47;;;;;;;21.02;4.00;;;;;;;5.35;100.00;102755.75;5035208;28;20044;-72
2021/12/20 07:49:13;;;;;;;25.67;4.32;;;;;;;5.34;100.00;102758.66;5023844;28;20123;-72
2021/12/20 07:51:38;;;;;;;28.52;5.30;;;;;;;5.35;100.00;102755.75;5012523;28;20044;-72
2021/12/20 07:54:04;;;;;;;34.92;4.47;;;;;;;5.49;100.00;102755.59;5012960;28;20056;-72
2021/12/20 07:56:29;;;;;;;23.73;4.50;;;;;;;5.49;100.00;102761.84;5014913;28;20041;-74
2021/12/20 07:58:55;;;;;;;20.25;4.65;;;;;;;5.54;100.00;102759.28;5015014;28;20037;-73
2021/12/20 08:01:20;;;;;;;21.73;3.78;;;;;;;5.66;100.00;102762.09;5025508;28;20500;-72
2021/12/20 08:03:46;;;;;;;27.17;5.03;;;;;;;5.59;100.00;102762.16;5012430;28;20727;-72
2021/12/20 08:06:11;;;;;;;21.58;4.38;;;;;;;5.65;100.00;102760.44;5012066;28;20067;-72
2021/12/20 08:08:37;;;;;;;31.23;4.85;;;;;;;5.65;100.00;102771.28;5011683;28;20295;-72
2021/12/20 08:11:02;;;;;;;18.33;5.13;;;;;;;5.60;100.00;102765.69;5013732;28;20048;-73
2021/12/20 08:13:28;;;;;;;25.10;4.80;;;;;;;5.76;100.00;102767.84;5013557;28;20045;-73
2021/12/20 08:15:53;;;;;;;30.50;4.78;;;;;;;5.83;100.00;102762.34;5013358;28;20049;-73
2021/12/20 08:18:20;;;;;;;24.35;4.25;;;;;;;5.93;100.00;102764.53;5013893;28;20849;-73
2021/12/20 08:20:46;;;;;;;17.95;4.90;;;;;;;6.11;100.00;102773.53;5012148;28;20478;-72
2021/12/20 08:23:11;;;;;;;23.13;4.97;;;;;;;6.10;100.00;102777.25;5014428;28;20052;-72
2021/12/20 08:25:39;;;;;;;28.25;4.85;;;;;;;6.15;100.00;102776.59;5013933;28;20045;-74
2021/12/20 08:28:06;;;;;;;18.10;4.50;;;;;;;5.96;100.00;102783.06;5014594;28;20077;-72
2021/12/20 08:30:31;;;;;;;26.35;3.70;;;;;;;6.06;100.00;102780.66;5012293;28;20049;-73
2021/12/20 08:32:57;;;;;;;25.95;4.25;;;;;;;5.87;100.00;102774.38;5011175;28;20044;-73
2021/12/20 08:35:22;;;;;;;21.80;4.07;;;;;;;6.04;100.00;102780.06;5013069;28;20119;-72
2021/12/20 08:37:48;;;;;;;19.95;4.38;;;;;;;5.89;100.00;102789.34;5011480;28;20127;-71
2021/12/20 08:40:15;;;;;;;21.52;4.07;;;;;;;5.85;100.00;102793.56;5012624;28;20068;-71
2021/12/20 08:42:42;;;;;;;22.42;3.85;;;;;;;5.71;100.00;102797.44;5013324;28;20045;-72
2021/12/20 08:45:09;;;;;;;20.80;4.45;;;;;;;5.70;100.00;102800.38;5010887;28;20098;-72
2021/12/20 08:47:35;;;;;;;22.73;3.97;;;;;;;5.82;100.00;102796.72;5027832;28;20313;-72
2021/12/20 08:50:02;;;;;;;31.10;4.47;;;;;;;5.87;100.00;102796.84;5007590;28;20064;-72
2021/12/20 08:52:27;;;;;;;28.35;4.32;;;;;;;5.69;100.00;102794.13;5011966;28;20414;-72
2021/12/20 08:54:54;;;;;;;25.27;4.10;;;;;;;5.71;100.00;102802.03;5027893;28;20057;-72
2021/12/20 08:57:19;;;;;;;23.67;4.60;;;;;;;5.65;100.00;102801.06;5013631;28;20054;-71
2021/12/20 08:59:45;;;;;;;19.20;3.88;;;;;;;5.53;100.00;102808.25;5013942;28;20513;-72
2021/12/20 09:02:11;;;;;;;32.00;4.15;;;;;;;5.53;100.00;102800.94;5014837;28;20046;-72
2021/12/20 09:04:38;;;;;;;28.23;4.65;;;;;;;5.35;100.00;102809.84;5011630;28;20037;-72
2021/12/20 09:07:04;;;;;;;23.83;4.78;;;;;;;5.35;100.00;102814.41;5015614;28;20064;-72
2021/12/20 09:09:36;;;;;;;23.02;4.15;;;;;;;5.33;100.00;102816.53;5013190;28;20140;-72
2021/12/20 09:12:02;;;;;;;30.10;5.82;;;;;;;5.36;100.00;102811.50;5012944;28;20124;-72
2021/12/20 09:14:28;;;;;;;25.20;5.10;;;;;;;5.11;100.00;102807.94;5011769;28;20045;-71
2021/12/20 09:16:54;;;;;;;26.58;5.28;;;;;;;5.20;100.00;102817.44;5011513;28;20391;-71
2021/12/20 09:19:19;;;;;;;25.27;4.25;;;;;;;5.10;100.00;102822.50;5012625;28;20076;-72
2021/12/20 09:21:48;;;;;;;15.48;3.95;;;;;;;5.02;100.00;102820.06;5015720;28;20033;-72
2021/12/20 09:24:13;;;;;;;19.33;4.88;;;;;;;4.99;100.00;102824.84;5023733;28;20044;-71
2021/12/20 09:26:39;;;;;;;26.25;4.50;;;;;;;5.03;100.00;102832.50;5030396;28;20492;-71
2021/12/20 09:29:04;;;;;;;26.77;6.45;;;;;;;4.92;100.00;102826.78;5032667;28;20048;-71
2021/12/20 09:31:30;;;;;;;34.10;5.60;;;;;;;4.92;100.00;102825.94;5030712;28;20045;-71
2021/12/20 09:33:55;;;;;;;24.38;4.88;;;;;;;4.93;100.00;102825.72;5030687;28;20041;-71
2021/12/20 09:36:26;;;;;;;37.45;6.05;;;;;;;5.03;100.00;102816.28;5033058;28;20097;-73
2021/12/20 09:38:51;;;;;;;44.20;7.25;;;;;;;5.13;100.00;102827.47;5031036;28;20044;-72
2021/12/20 09:41:59;;;;;;;37.30;5.70;;;;;;;5.17;100.00;102834.09;5033027;28;20052;-72
2021/12/20 09:44:03;;;;;;;37.28;5.28;;;;;;;5.23;100.00;102833.22;5028001;28;20473;-72
2021/12/20 09:46:29;;;;;;;38.55;6.47;;;;;;;5.14;100.00;102835.34;5015155;28;20048;-72
2021/12/20 09:48:55;;;;;;;23.55;5.40;;;;;;;5.05;100.00;102825.84;5014349;28;20360;-71
2021/12/20 09:51:21;;;;;;;32.88;5.90;;;;;;;5.22;100.00;102828.88;5014332;28;20830;-72
2021/12/20 09:53:47;;;;;;;34.10;6.60;;;;;;;5.29;100.00;102828.81;5019964;28;20060;-72
2021/12/20 09:56:12;;;;;;;33.78;6.35;;;;;;;5.30;100.00;102835.91;5014462;28;20103;-71
2021/12/20 09:58:40;;;;;;;32.88;6.13;;;;;;;5.19;100.00;102830.13;5014517;28;20045;-72
2021/12/20 10:01:08;;;;;;;49.55;7.20;;;;;;;5.20;100.00;102828.25;5017927;28;20478;-72
2021/12/20 10:03:35;;;;;;;38.65;7.03;;;;;;;5.33;100.00;102833.56;5021644;28;20037;-72
2021/12/20 10:06:01;;;;;;;44.92;6.93;;;;;;;5.54;100.00;102835.06;5022597;28;20901;-72
2021/12/20 10:08:34;;;;;;;35.55;6.90;;;;;;;5.47;100.00;102823.47;5015217;28;20041;-72
2021/12/20 10:11:03;;;;;;;26.80;6.30;;;;;;;5.43;100.00;102825.78;5016663;28;20067;-72
2021/12/20 10:13:32;;;;;;;43.85;6.68;;;;;;;5.38;100.00;102819.38;5016276;28;20521;-71
2021/12/20 10:15:59;;;;;;;40.28;6.78;;;;;;;5.71;100.00;102818.28;5016755;28;20638;-72
2021/12/20 10:18:27;;;;;;;47.50;7.72;;;;;;;5.81;100.00;102824.81;5015406;28;20100;-72
2021/12/20 10:20:55;;;;;;;31.65;6.30;;;;;;;5.89;100.00;102827.25;5016337;28;20044;-72
2021/12/20 10:23:23;;;;;;;33.08;6.55;;;;;;;5.68;100.00;102836.63;5014183;28;20061;-72
2021/12/20 10:26:00;;;;;;;37.30;8.05;;;;;;;5.92;100.00;102836.00;5015996;28;20041;-72
2021/12/20 10:28:32;;;;;;;48.17;7.72;;;;;;;5.88;100.00;102841.03;5014371;28;20041;-72
2021/12/20 10:30:59;;;;;;;39.13;7.40;;;;;;;5.75;100.00;102835.72;5021674;28;20481;-72
2021/12/20 10:33:25;;;;;;;40.38;7.32;;;;;;;5.97;100.00;102828.06;5017916;28;20049;-72
2021/12/20 10:35:53;;;;;;;29.35;7.50;;;;;;;5.75;100.00;102820.31;5020243;28;20592;-72
2021/12/20 10:38:20;;;;;;;30.20;5.20;;;;;;;5.89;100.00;102829.97;5022969;28;20045;-71
2021/12/20 10:40:52;;;;;;;40.03;7.28;;;;;;;5.68;100.00;102824.97;5021345;28;20553;-72
2021/12/20 10:43:24;;;;;;;36.47;7.80;;;;;;;5.88;100.00;102830.19;5016764;28;20045;-72
2021/12/20 10:45:55;;;;;;;37.95;7.80;;;;;;;6.02;100.00;102833.59;5026086;28;20044;-72
2021/12/20 10:48:21;;;;;;;39.05;8.18;;;;;;;6.04;100.00;102826.09;5022527;28;20102;-72
2021/12/20 10:50:47;;;;;;;45.90;7.93;;;;;;;6.08;100.00;102827.31;5027687;28;20828;-72
2021/12/20 10:53:17;;;;;;;40.13;7.20;;;;;;;6.11;100.00;102835.00;5027295;28;20088;-72
2021/12/20 10:55:50;;;;;;;47.58;7.03;;;;;;;5.92;100.00;102831.41;5041669;28;20390;-73
2021/12/20 10:58:28;;;;;;;41.33;6.80;;;;;;;5.74;100.00;102828.66;5035054;28;20431;-73
2021/12/20 11:01:18;;;;;;;45.38;8.32;;;;;;;6.20;100.00;102822.81;5037792;28;20056;-72
2021/12/20 11:03:54;;;;;;;52.20;7.25;;;;;;;6.28;100.00;102814.38;5037109;28;20441;-72
2021/12/20 11:09:05;;;;;;;48.63;7.97;;;;;;;5.88;100.00;102825.59;5037159;28;20045;-72
2021/12/20 11:11:34;;;;;;;47.30;7.63;;;;;;;6.02;100.00;102814.66;5042518;28;20060;-73
2021/12/20 11:14:02;;;;;;;41.72;7.30;;;;;;;5.96;100.00;102815.56;5036388;28;20297;-72
2021/12/20 11:16:52;;;;;;;43.67;8.75;;;;;;;5.92;100.00;102815.16;5041116;28;20056;-72
2021/12/20 11:19:21;;;;;;;41.15;7.03;;;;;;;5.99;100.00;102820.53;5040926;28;20567;-72
2021/12/20 11:22:14;;;;;;;38.85;7.47;;;;;;;6.04;100.00;102817.97;5050000;28;20052;-72
2021/12/20 11:24:46;;;;;;;47.90;7.18;;;;;;;6.04;100.00;102817.97;5027454;28;20053;-73
2021/12/20 11:27:21;;;;;;;39.70;7.43;;;;;;;6.03;100.00;102808.19;5033936;28;20094;-72
2021/12/20 11:29:48;;;;;;;39.40;7.60;;;;;;;6.15;100.00;102814.53;5046083;28;20041;-73
2021/12/20 11:32:15;;;;;;;39.22;8.18;;;;;;;6.25;100.00;102809.38;5031371;28;20042;-73
2021/12/20 11:34:42;;;;;;;37.70;8.73;;;;;;;6.43;100.00;102811.28;5031370;28;20033;-72
2021/12/20 11:37:19;;;;;;;34.47;7.25;;;;;;;6.34;100.00;102808.06;5027886;28;20037;-73